Portada
METAR-TAF:

METAR-TAF

Aeropuertos :

Valledupar, Colombia

Aeropuerto Alfonso López Pumarejo

latitud: 10-26N, longitud: 073-15W, altitud: 138 m

Observación

El informe se hizo hace 37 minutos, a las 15:00 UTC
Viento 6 kt del sur
Temperatura 28°C
Humedad 74%
Presión 1014 hPa
Visibilidad 10 km o más
Escasas nubes a una altura de 1500 ft
Cielo nuboso a una altura de 20000 ft

METAR: SKVP 201500Z 19006KT 9999 FEW015 BKN200 28/23 A2995

Hora: 10:37 (15:37 UTC)


TAF: falta

Observaciones y pronósticos meteorológicos de más de 4000 aeropuertos (mensajes METAR y TAF).

Los puntos amarillos y rojos representan las estaciones disponibles.

Ponga el ratón en el punto deseado para ver el nombre de la estación.

Haga clic para ver las observaciones y los pronósticos meteorológicos.

Para cambiar el mapa : haga clic en los botones verdes con una cruz de color negro para hacer un zoom, en el botón verde con un guión para alejar o en las flechas verdes para mapas adyacentes.


METAR-TAF: